sensor_id;sensor_type;location;lat;lon;timestamp;P1;durP1;ratioP1;P2;durP2;ratioP2
15665;SDS011;20725;51.196;3.510;2023-12-28T00:00:58;4.93;;;3.00;;
15665;SDS011;20725;51.196;3.510;2023-12-28T00:03:25;3.27;;;2.97;;
15665;SDS011;20725;51.196;3.510;2023-12-28T00:05:53;5.40;;;3.23;;
15665;SDS011;20725;51.196;3.510;2023-12-28T00:08:20;3.53;;;3.00;;
15665;SDS011;20725;51.196;3.510;2023-12-28T00:10:48;7.53;;;3.27;;
15665;SDS011;20725;51.196;3.510;2023-12-28T00:13:16;3.90;;;3.50;;
15665;SDS011;20725;51.196;3.510;2023-12-28T00:15:45;4.77;;;2.87;;
15665;SDS011;20725;51.196;3.510;2023-12-28T00:18:13;4.60;;;3.40;;
15665;SDS011;20725;51.196;3.510;2023-12-28T00:20:41;3.23;;;3.00;;
15665;SDS011;20725;51.196;3.510;2023-12-28T00:23:08;7.10;;;3.03;;
15665;SDS011;20725;51.196;3.510;2023-12-28T00:25:36;3.67;;;3.07;;
15665;SDS011;20725;51.196;3.510;2023-12-28T00:28:04;5.03;;;3.17;;
15665;SDS011;20725;51.196;3.510;2023-12-28T00:30:32;7.17;;;2.67;;
15665;SDS011;20725;51.196;3.510;2023-12-28T00:33:02;2.70;;;2.47;;
15665;SDS011;20725;51.196;3.510;2023-12-28T00:35:30;4.77;;;3.53;;
15665;SDS011;20725;51.196;3.510;2023-12-28T00:37:57;8.80;;;3.07;;
15665;SDS011;20725;51.196;3.510;2023-12-28T00:40:25;4.97;;;2.53;;
15665;SDS011;20725;51.196;3.510;2023-12-28T00:42:53;3.47;;;2.90;;
15665;SDS011;20725;51.196;3.510;2023-12-28T00:45:21;3.83;;;2.67;;
15665;SDS011;20725;51.196;3.510;2023-12-28T00:47:49;3.47;;;2.90;;
15665;SDS011;20725;51.196;3.510;2023-12-28T00:50:18;3.83;;;3.10;;
15665;SDS011;20725;51.196;3.510;2023-12-28T00:52:46;4.57;;;4.13;;
15665;SDS011;20725;51.196;3.510;2023-12-28T00:55:13;3.33;;;2.80;;
15665;SDS011;20725;51.196;3.510;2023-12-28T00:57:42;3.60;;;3.00;;
15665;SDS011;20725;51.196;3.510;2023-12-28T01:00:10;2.70;;;2.43;;
15665;SDS011;20725;51.196;3.510;2023-12-28T01:02:37;4.13;;;3.13;;
15665;SDS011;20725;51.196;3.510;2023-12-28T01:05:04;3.70;;;2.87;;
15665;SDS011;20725;51.196;3.510;2023-12-28T01:07:34;3.60;;;3.30;;
15665;SDS011;20725;51.196;3.510;2023-12-28T01:10:02;5.07;;;2.97;;
15665;SDS011;20725;51.196;3.510;2023-12-28T01:12:29;3.90;;;3.00;;
15665;SDS011;20725;51.196;3.510;2023-12-28T01:14:57;2.70;;;2.50;;
15665;SDS011;20725;51.196;3.510;2023-12-28T01:17:24;3.90;;;2.97;;
15665;SDS011;20725;51.196;3.510;2023-12-28T01:19:52;4.27;;;2.43;;
15665;SDS011;20725;51.196;3.510;2023-12-28T01:22:20;6.40;;;2.53;;
15665;SDS011;20725;51.196;3.510;2023-12-28T01:24:50;8.47;;;2.53;;
15665;SDS011;20725;51.196;3.510;2023-12-28T01:27:18;3.27;;;2.27;;
15665;SDS011;20725;51.196;3.510;2023-12-28T01:29:46;7.10;;;3.37;;
15665;SDS011;20725;51.196;3.510;2023-12-28T01:32:14;2.60;;;2.40;;
15665;SDS011;20725;51.196;3.510;2023-12-28T01:34:42;3.13;;;2.57;;
15665;SDS011;20725;51.196;3.510;2023-12-28T01:37:10;2.67;;;1.93;;
15665;SDS011;20725;51.196;3.510;2023-12-28T01:39:38;3.73;;;2.60;;
15665;SDS011;20725;51.196;3.510;2023-12-28T01:42:09;3.73;;;2.70;;
15665;SDS011;20725;51.196;3.510;2023-12-28T01:44:37;2.30;;;2.00;;
15665;SDS011;20725;51.196;3.510;2023-12-28T01:47:05;5.17;;;2.20;;
15665;SDS011;20725;51.196;3.510;2023-12-28T01:49:33;3.83;;;2.60;;
15665;SDS011;20725;51.196;3.510;2023-12-28T01:52:01;4.93;;;2.27;;
15665;SDS011;20725;51.196;3.510;2023-12-28T01:54:29;4.63;;;2.80;;
15665;SDS011;20725;51.196;3.510;2023-12-28T01:56:58;7.43;;;2.63;;
15665;SDS011;20725;51.196;3.510;2023-12-28T01:59:29;2.53;;;2.00;;
15665;SDS011;20725;51.196;3.510;2023-12-28T02:01:56;8.93;;;3.03;;
15665;SDS011;20725;51.196;3.510;2023-12-28T02:04:24;12.60;;;2.90;;
15665;SDS011;20725;51.196;3.510;2023-12-28T02:06:54;4.00;;;2.50;;
15665;SDS011;20725;51.196;3.510;2023-12-28T02:09:24;2.47;;;2.27;;
15665;SDS011;20725;51.196;3.510;2023-12-28T02:11:52;3.73;;;2.60;;
15665;SDS011;20725;51.196;3.510;2023-12-28T02:14:20;4.47;;;2.37;;
15665;SDS011;20725;51.196;3.510;2023-12-28T02:16:53;3.73;;;1.90;;
15665;SDS011;20725;51.196;3.510;2023-12-28T02:19:24;4.37;;;2.43;;
15665;SDS011;20725;51.196;3.510;2023-12-28T02:21:53;7.47;;;2.37;;
15665;SDS011;20725;51.196;3.510;2023-12-28T02:24:22;4.40;;;2.30;;
15665;SDS011;20725;51.196;3.510;2023-12-28T02:26:51;5.73;;;2.73;;
15665;SDS011;20725;51.196;3.510;2023-12-28T02:29:19;4.80;;;2.63;;
15665;SDS011;20725;51.196;3.510;2023-12-28T02:31:48;3.97;;;2.13;;
15665;SDS011;20725;51.196;3.510;2023-12-28T02:34:19;7.10;;;2.50;;
15665;SDS011;20725;51.196;3.510;2023-12-28T02:36:50;9.50;;;2.40;;
15665;SDS011;20725;51.196;3.510;2023-12-28T02:39:21;7.20;;;2.93;;
15665;SDS011;20725;51.196;3.510;2023-12-28T02:41:50;4.30;;;1.97;;
15665;SDS011;20725;51.196;3.510;2023-12-28T02:44:20;3.70;;;2.27;;
15665;SDS011;20725;51.196;3.510;2023-12-28T02:46:49;8.63;;;2.40;;
15665;SDS011;20725;51.196;3.510;2023-12-28T02:49:17;7.20;;;2.93;;
15665;SDS011;20725;51.196;3.510;2023-12-28T02:51:44;6.87;;;2.10;;
15665;SDS011;20725;51.196;3.510;2023-12-28T02:54:12;5.60;;;2.37;;
15665;SDS011;20725;51.196;3.510;2023-12-28T02:56:55;8.20;;;2.27;;
15665;SDS011;20725;51.196;3.510;2023-12-28T02:59:23;4.30;;;2.50;;
15665;SDS011;20725;51.196;3.510;2023-12-28T03:01:51;3.83;;;2.10;;
15665;SDS011;20725;51.196;3.510;2023-12-28T03:04:19;7.67;;;2.30;;
15665;SDS011;20725;51.196;3.510;2023-12-28T03:06:46;5.90;;;2.17;;
15665;SDS011;20725;51.196;3.510;2023-12-28T03:09:14;7.83;;;2.90;;
15665;SDS011;20725;51.196;3.510;2023-12-28T03:11:41;7.20;;;2.27;;
15665;SDS011;20725;51.196;3.510;2023-12-28T03:14:10;5.27;;;2.67;;
15665;SDS011;20725;51.196;3.510;2023-12-28T03:16:39;6.23;;;2.93;;
15665;SDS011;20725;51.196;3.510;2023-12-28T03:19:07;8.67;;;2.30;;
15665;SDS011;20725;51.196;3.510;2023-12-28T03:21:38;7.93;;;2.70;;
15665;SDS011;20725;51.196;3.510;2023-12-28T03:24:05;11.20;;;2.43;;
15665;SDS011;20725;51.196;3.510;2023-12-28T03:26:37;8.30;;;2.40;;
15665;SDS011;20725;51.196;3.510;2023-12-28T03:29:05;6.73;;;2.67;;
15665;SDS011;20725;51.196;3.510;2023-12-28T03:31:38;9.50;;;2.97;;
15665;SDS011;20725;51.196;3.510;2023-12-28T03:34:05;5.63;;;2.57;;
15665;SDS011;20725;51.196;3.510;2023-12-28T03:36:33;7.57;;;2.60;;
15665;SDS011;20725;51.196;3.510;2023-12-28T03:39:02;14.40;;;3.50;;
15665;SDS011;20725;51.196;3.510;2023-12-28T03:41:30;8.20;;;3.00;;
15665;SDS011;20725;51.196;3.510;2023-12-28T03:43:59;10.07;;;2.87;;
15665;SDS011;20725;51.196;3.510;2023-12-28T03:46:26;10.10;;;3.13;;
15665;SDS011;20725;51.196;3.510;2023-12-28T03:48:58;7.73;;;3.40;;
15665;SDS011;20725;51.196;3.510;2023-12-28T03:51:25;9.27;;;2.47;;
15665;SDS011;20725;51.196;3.510;2023-12-28T03:53:53;12.90;;;3.10;;
15665;SDS011;20725;51.196;3.510;2023-12-28T03:56:21;6.43;;;2.47;;
15665;SDS011;20725;51.196;3.510;2023-12-28T03:58:49;9.13;;;2.67;;
15665;SDS011;20725;51.196;3.510;2023-12-28T04:01:17;10.50;;;3.30;;
15665;SDS011;20725;51.196;3.510;2023-12-28T04:03:45;9.87;;;3.10;;
15665;SDS011;20725;51.196;3.510;2023-12-28T04:06:14;5.77;;;2.30;;
15665;SDS011;20725;51.196;3.510;2023-12-28T04:08:42;11.63;;;3.83;;
15665;SDS011;20725;51.196;3.510;2023-12-28T04:11:09;9.93;;;2.50;;
15665;SDS011;20725;51.196;3.510;2023-12-28T04:13:37;12.60;;;3.27;;
15665;SDS011;20725;51.196;3.510;2023-12-28T04:16:05;13.87;;;2.37;;
15665;SDS011;20725;51.196;3.510;2023-12-28T04:18:34;14.00;;;3.57;;
15665;SDS011;20725;51.196;3.510;2023-12-28T04:21:01;8.73;;;3.17;;
15665;SDS011;20725;51.196;3.510;2023-12-28T04:23:32;12.13;;;3.27;;
15665;SDS011;20725;51.196;3.510;2023-12-28T04:26:00;7.97;;;2.70;;
15665;SDS011;20725;51.196;3.510;2023-12-28T04:28:28;5.63;;;2.40;;
15665;SDS011;20725;51.196;3.510;2023-12-28T04:30:56;13.17;;;2.97;;
15665;SDS011;20725;51.196;3.510;2023-12-28T04:33:24;16.67;;;4.70;;
15665;SDS011;20725;51.196;3.510;2023-12-28T04:35:51;7.57;;;3.17;;
15665;SDS011;20725;51.196;3.510;2023-12-28T04:38:19;13.90;;;3.23;;
15665;SDS011;20725;51.196;3.510;2023-12-28T04:40:49;19.03;;;3.47;;
15665;SDS011;20725;51.196;3.510;2023-12-28T04:43:17;11.17;;;3.50;;
15665;SDS011;20725;51.196;3.510;2023-12-28T04:45:45;12.17;;;2.77;;
15665;SDS011;20725;51.196;3.510;2023-12-28T04:48:12;8.87;;;3.00;;
15665;SDS011;20725;51.196;3.510;2023-12-28T04:50:40;10.73;;;2.57;;
15665;SDS011;20725;51.196;3.510;2023-12-28T04:53:08;9.80;;;2.87;;
15665;SDS011;20725;51.196;3.510;2023-12-28T04:55:36;16.00;;;3.07;;
15665;SDS011;20725;51.196;3.510;2023-12-28T04:58:05;10.23;;;3.17;;
15665;SDS011;20725;51.196;3.510;2023-12-28T05:00:32;14.80;;;3.80;;
15665;SDS011;20725;51.196;3.510;2023-12-28T05:03:00;10.63;;;3.40;;
15665;SDS011;20725;51.196;3.510;2023-12-28T05:05:27;11.43;;;3.33;;
15665;SDS011;20725;51.196;3.510;2023-12-28T05:07:55;13.47;;;2.93;;
15665;SDS011;20725;51.196;3.510;2023-12-28T05:10:23;7.23;;;2.77;;
15665;SDS011;20725;51.196;3.510;2023-12-28T05:12:50;10.47;;;2.70;;
15665;SDS011;20725;51.196;3.510;2023-12-28T05:15:19;12.30;;;3.73;;
15665;SDS011;20725;51.196;3.510;2023-12-28T05:17:48;14.60;;;4.17;;
15665;SDS011;20725;51.196;3.510;2023-12-28T05:20:16;11.03;;;3.27;;
15665;SDS011;20725;51.196;3.510;2023-12-28T05:22:44;8.83;;;2.50;;
15665;SDS011;20725;51.196;3.510;2023-12-28T05:25:12;9.53;;;2.90;;
15665;SDS011;20725;51.196;3.510;2023-12-28T05:27:39;10.67;;;2.73;;
15665;SDS011;20725;51.196;3.510;2023-12-28T05:30:08;10.20;;;2.80;;
15665;SDS011;20725;51.196;3.510;2023-12-28T05:32:36;12.83;;;3.53;;
15665;SDS011;20725;51.196;3.510;2023-12-28T05:35:04;14.03;;;3.57;;
15665;SDS011;20725;51.196;3.510;2023-12-28T05:37:31;14.17;;;3.33;;
15665;SDS011;20725;51.196;3.510;2023-12-28T05:39:59;11.33;;;3.93;;
15665;SDS011;20725;51.196;3.510;2023-12-28T05:42:27;15.80;;;4.13;;
15665;SDS011;20725;51.196;3.510;2023-12-28T05:44:54;14.90;;;3.17;;
15665;SDS011;20725;51.196;3.510;2023-12-28T05:47:22;11.50;;;2.80;;
15665;SDS011;20725;51.196;3.510;2023-12-28T05:49:52;14.43;;;2.83;;
15665;SDS011;20725;51.196;3.510;2023-12-28T05:52:19;3.97;;;2.47;;
15665;SDS011;20725;51.196;3.510;2023-12-28T05:54:47;14.37;;;3.37;;
15665;SDS011;20725;51.196;3.510;2023-12-28T05:57:15;12.13;;;3.23;;
15665;SDS011;20725;51.196;3.510;2023-12-28T05:59:43;15.23;;;3.27;;
15665;SDS011;20725;51.196;3.510;2023-12-28T06:02:10;9.60;;;2.80;;
15665;SDS011;20725;51.196;3.510;2023-12-28T06:04:38;16.87;;;3.40;;
15665;SDS011;20725;51.196;3.510;2023-12-28T06:07:07;11.50;;;2.60;;
15665;SDS011;20725;51.196;3.510;2023-12-28T06:09:35;12.30;;;3.13;;
15665;SDS011;20725;51.196;3.510;2023-12-28T06:12:04;7.47;;;2.40;;
15665;SDS011;20725;51.196;3.510;2023-12-28T06:14:31;11.63;;;3.80;;
15665;SDS011;20725;51.196;3.510;2023-12-28T06:16:59;14.17;;;3.90;;
15665;SDS011;20725;51.196;3.510;2023-12-28T06:19:28;8.20;;;2.27;;
15665;SDS011;20725;51.196;3.510;2023-12-28T06:21:55;8.60;;;3.03;;
15665;SDS011;20725;51.196;3.510;2023-12-28T06:24:26;21.27;;;3.93;;
15665;SDS011;20725;51.196;3.510;2023-12-28T06:26:53;15.93;;;3.60;;
15665;SDS011;20725;51.196;3.510;2023-12-28T06:29:21;12.60;;;3.37;;
15665;SDS011;20725;51.196;3.510;2023-12-28T06:31:49;21.13;;;3.90;;
15665;SDS011;20725;51.196;3.510;2023-12-28T06:34:16;20.13;;;2.67;;
15665;SDS011;20725;51.196;3.510;2023-12-28T06:36:44;10.93;;;2.83;;
15665;SDS011;20725;51.196;3.510;2023-12-28T06:39:11;7.67;;;2.83;;
15665;SDS011;20725;51.196;3.510;2023-12-28T06:41:42;13.20;;;2.90;;
15665;SDS011;20725;51.196;3.510;2023-12-28T06:44:11;13.73;;;3.33;;
15665;SDS011;20725;51.196;3.510;2023-12-28T06:46:39;10.10;;;3.10;;
15665;SDS011;20725;51.196;3.510;2023-12-28T06:49:07;11.07;;;3.33;;
15665;SDS011;20725;51.196;3.510;2023-12-28T06:51:35;8.40;;;2.30;;
15665;SDS011;20725;51.196;3.510;2023-12-28T06:54:02;10.10;;;3.73;;
15665;SDS011;20725;51.196;3.510;2023-12-28T06:56:29;12.80;;;4.07;;
15665;SDS011;20725;51.196;3.510;2023-12-28T06:58:58;10.80;;;3.23;;
15665;SDS011;20725;51.196;3.510;2023-12-28T07:01:26;12.07;;;2.93;;
15665;SDS011;20725;51.196;3.510;2023-12-28T07:03:53;11.37;;;3.50;;
15665;SDS011;20725;51.196;3.510;2023-12-28T07:06:21;14.20;;;3.33;;
15665;SDS011;20725;51.196;3.510;2023-12-28T07:08:49;11.13;;;3.10;;
15665;SDS011;20725;51.196;3.510;2023-12-28T07:11:16;13.03;;;3.10;;
15665;SDS011;20725;51.196;3.510;2023-12-28T07:13:44;11.17;;;3.30;;
15665;SDS011;20725;51.196;3.510;2023-12-28T07:16:14;7.33;;;3.00;;
15665;SDS011;20725;51.196;3.510;2023-12-28T07:18:42;8.80;;;2.80;;
15665;SDS011;20725;51.196;3.510;2023-12-28T07:21:09;8.47;;;3.07;;
15665;SDS011;20725;51.196;3.510;2023-12-28T07:23:37;8.40;;;4.17;;
15665;SDS011;20725;51.196;3.510;2023-12-28T07:26:04;11.97;;;3.10;;
15665;SDS011;20725;51.196;3.510;2023-12-28T07:28:32;20.00;;;4.47;;
15665;SDS011;20725;51.196;3.510;2023-12-28T07:30:59;18.40;;;3.47;;
15665;SDS011;20725;51.196;3.510;2023-12-28T07:33:29;14.63;;;3.27;;
15665;SDS011;20725;51.196;3.510;2023-12-28T07:35:58;9.23;;;3.40;;
15665;SDS011;20725;51.196;3.510;2023-12-28T07:38:27;13.77;;;3.90;;
15665;SDS011;20725;51.196;3.510;2023-12-28T07:40:56;11.93;;;3.53;;
15665;SDS011;20725;51.196;3.510;2023-12-28T07:43:23;11.97;;;3.60;;
15665;SDS011;20725;51.196;3.510;2023-12-28T07:45:51;10.60;;;3.53;;
15665;SDS011;20725;51.196;3.510;2023-12-28T07:48:20;14.67;;;3.33;;
15665;SDS011;20725;51.196;3.510;2023-12-28T07:50:50;13.47;;;3.33;;
15665;SDS011;20725;51.196;3.510;2023-12-28T07:53:20;13.70;;;3.70;;
15665;SDS011;20725;51.196;3.510;2023-12-28T07:55:48;16.83;;;4.00;;
15665;SDS011;20725;51.196;3.510;2023-12-28T07:58:16;11.97;;;3.67;;
15665;SDS011;20725;51.196;3.510;2023-12-28T08:00:47;16.23;;;3.77;;
15665;SDS011;20725;51.196;3.510;2023-12-28T08:03:16;14.03;;;3.40;;
15665;SDS011;20725;51.196;3.510;2023-12-28T08:05:46;11.13;;;3.00;;
15665;SDS011;20725;51.196;3.510;2023-12-28T08:08:17;15.87;;;4.10;;
15665;SDS011;20725;51.196;3.510;2023-12-28T08:10:45;18.67;;;4.80;;
15665;SDS011;20725;51.196;3.510;2023-12-28T08:13:13;10.47;;;3.13;;
15665;SDS011;20725;51.196;3.510;2023-12-28T08:15:40;12.70;;;4.27;;
15665;SDS011;20725;51.196;3.510;2023-12-28T08:18:11;20.83;;;4.00;;
15665;SDS011;20725;51.196;3.510;2023-12-28T08:20:40;18.03;;;4.53;;
15665;SDS011;20725;51.196;3.510;2023-12-28T08:23:08;14.07;;;3.57;;
15665;SDS011;20725;51.196;3.510;2023-12-28T08:25:41;11.97;;;3.97;;
15665;SDS011;20725;51.196;3.510;2023-12-28T08:28:10;16.07;;;2.90;;
15665;SDS011;20725;51.196;3.510;2023-12-28T08:30:39;15.03;;;3.40;;
15665;SDS011;20725;51.196;3.510;2023-12-28T08:33:07;14.90;;;3.20;;
15665;SDS011;20725;51.196;3.510;2023-12-28T08:35:36;14.00;;;3.90;;
15665;SDS011;20725;51.196;3.510;2023-12-28T08:38:03;16.60;;;4.50;;
15665;SDS011;20725;51.196;3.510;2023-12-28T08:40:31;14.87;;;3.83;;
15665;SDS011;20725;51.196;3.510;2023-12-28T08:43:03;12.70;;;2.83;;
15665;SDS011;20725;51.196;3.510;2023-12-28T08:45:31;11.43;;;3.83;;
15665;SDS011;20725;51.196;3.510;2023-12-28T08:47:59;13.07;;;2.97;;
15665;SDS011;20725;51.196;3.510;2023-12-28T08:50:27;16.33;;;3.50;;
15665;SDS011;20725;51.196;3.510;2023-12-28T08:52:54;19.00;;;4.97;;
15665;SDS011;20725;51.196;3.510;2023-12-28T08:55:22;12.83;;;4.30;;
15665;SDS011;20725;51.196;3.510;2023-12-28T08:57:49;21.83;;;5.07;;
15665;SDS011;20725;51.196;3.510;2023-12-28T09:00:19;10.80;;;3.20;;
15665;SDS011;20725;51.196;3.510;2023-12-28T09:02:46;14.00;;;4.97;;
15665;SDS011;20725;51.196;3.510;2023-12-28T09:05:13;12.93;;;3.47;;
15665;SDS011;20725;51.196;3.510;2023-12-28T09:07:41;15.13;;;4.37;;
15665;SDS011;20725;51.196;3.510;2023-12-28T09:10:09;19.73;;;4.20;;
15665;SDS011;20725;51.196;3.510;2023-12-28T09:12:36;9.10;;;3.17;;
15665;SDS011;20725;51.196;3.510;2023-12-28T09:15:04;10.07;;;3.60;;
15665;SDS011;20725;51.196;3.510;2023-12-28T09:17:33;13.57;;;3.70;;
15665;SDS011;20725;51.196;3.510;2023-12-28T09:20:01;14.90;;;3.43;;
15665;SDS011;20725;51.196;3.510;2023-12-28T09:22:29;13.87;;;3.27;;
15665;SDS011;20725;51.196;3.510;2023-12-28T09:24:56;14.67;;;4.83;;
15665;SDS011;20725;51.196;3.510;2023-12-28T09:27:23;12.57;;;3.53;;
15665;SDS011;20725;51.196;3.510;2023-12-28T09:29:53;15.47;;;3.40;;
15665;SDS011;20725;51.196;3.510;2023-12-28T09:32:25;13.43;;;3.50;;
15665;SDS011;20725;51.196;3.510;2023-12-28T09:34:54;11.33;;;3.23;;
15665;SDS011;20725;51.196;3.510;2023-12-28T09:37:23;16.90;;;4.00;;
15665;SDS011;20725;51.196;3.510;2023-12-28T09:39:50;11.03;;;3.53;;
15665;SDS011;20725;51.196;3.510;2023-12-28T09:42:25;9.93;;;3.20;;
15665;SDS011;20725;51.196;3.510;2023-12-28T09:44:53;10.93;;;3.30;;
15665;SDS011;20725;51.196;3.510;2023-12-28T09:47:21;13.80;;;3.93;;
15665;SDS011;20725;51.196;3.510;2023-12-28T09:49:48;13.03;;;3.17;;
15665;SDS011;20725;51.196;3.510;2023-12-28T09:52:17;19.20;;;3.77;;
15665;SDS011;20725;51.196;3.510;2023-12-28T09:54:46;15.47;;;4.03;;
15665;SDS011;20725;51.196;3.510;2023-12-28T09:57:13;23.27;;;4.83;;
15665;SDS011;20725;51.196;3.510;2023-12-28T09:59:41;14.90;;;3.70;;
15665;SDS011;20725;51.196;3.510;2023-12-28T10:02:08;13.27;;;3.77;;
15665;SDS011;20725;51.196;3.510;2023-12-28T10:04:37;13.20;;;3.93;;
15665;SDS011;20725;51.196;3.510;2023-12-28T10:07:04;17.97;;;3.80;;
15665;SDS011;20725;51.196;3.510;2023-12-28T10:09:33;14.07;;;3.53;;
15665;SDS011;20725;51.196;3.510;2023-12-28T10:12:14;9.33;;;3.43;;
15665;SDS011;20725;51.196;3.510;2023-12-28T10:17:33;10.57;;;3.07;;
15665;SDS011;20725;51.196;3.510;2023-12-28T10:20:08;13.30;;;3.10;;
15665;SDS011;20725;51.196;3.510;2023-12-28T10:22:45;12.63;;;3.00;;
15665;SDS011;20725;51.196;3.510;2023-12-28T10:25:22;17.37;;;4.17;;
15665;SDS011;20725;51.196;3.510;2023-12-28T10:28:03;13.10;;;3.77;;
15665;SDS011;20725;51.196;3.510;2023-12-28T10:30:37;14.03;;;3.53;;
15665;SDS011;20725;51.196;3.510;2023-12-28T10:33:16;19.17;;;4.33;;
15665;SDS011;20725;51.196;3.510;2023-12-28T10:35:54;14.90;;;3.70;;
15665;SDS011;20725;51.196;3.510;2023-12-28T10:38:36;16.67;;;4.37;;
15665;SDS011;20725;51.196;3.510;2023-12-28T10:41:15;18.33;;;4.73;;
15665;SDS011;20725;51.196;3.510;2023-12-28T10:43:45;12.10;;;3.77;;
15665;SDS011;20725;51.196;3.510;2023-12-28T10:46:19;12.07;;;3.83;;
15665;SDS011;20725;51.196;3.510;2023-12-28T10:48:47;15.93;;;4.90;;
15665;SDS011;20725;51.196;3.510;2023-12-28T10:51:29;9.03;;;3.20;;
15665;SDS011;20725;51.196;3.510;2023-12-28T10:54:03;14.20;;;3.70;;
15665;SDS011;20725;51.196;3.510;2023-12-28T10:56:54;20.37;;;4.10;;
15665;SDS011;20725;51.196;3.510;2023-12-28T10:59:39;7.37;;;2.83;;
15665;SDS011;20725;51.196;3.510;2023-12-28T11:02:15;14.20;;;4.13;;
15665;SDS011;20725;51.196;3.510;2023-12-28T11:04:49;12.50;;;3.50;;
15665;SDS011;20725;51.196;3.510;2023-12-28T11:07:30;14.90;;;4.33;;
15665;SDS011;20725;51.196;3.510;2023-12-28T11:10:01;16.47;;;4.47;;
15665;SDS011;20725;51.196;3.510;2023-12-28T11:12:31;14.97;;;3.10;;
15665;SDS011;20725;51.196;3.510;2023-12-28T11:18:02;14.20;;;3.97;;
15665;SDS011;20725;51.196;3.510;2023-12-28T11:23:24;10.10;;;3.43;;
15665;SDS011;20725;51.196;3.510;2023-12-28T11:31:33;22.57;;;4.00;;
15665;SDS011;20725;51.196;3.510;2023-12-28T11:34:08;21.63;;;5.13;;
15665;SDS011;20725;51.196;3.510;2023-12-28T11:36:48;18.87;;;4.70;;
15665;SDS011;20725;51.196;3.510;2023-12-28T11:39:20;17.10;;;4.17;;
15665;SDS011;20725;51.196;3.510;2023-12-28T11:41:47;13.40;;;4.03;;
15665;SDS011;20725;51.196;3.510;2023-12-28T11:44:17;16.63;;;4.40;;
15665;SDS011;20725;51.196;3.510;2023-12-28T11:46:47;18.60;;;3.97;;
15665;SDS011;20725;51.196;3.510;2023-12-28T11:49:14;16.77;;;4.37;;
15665;SDS011;20725;51.196;3.510;2023-12-28T11:51:41;16.90;;;4.37;;
15665;SDS011;20725;51.196;3.510;2023-12-28T11:54:09;11.13;;;3.40;;
15665;SDS011;20725;51.196;3.510;2023-12-28T11:56:36;17.37;;;4.33;;
15665;SDS011;20725;51.196;3.510;2023-12-28T11:59:04;13.63;;;3.70;;
15665;SDS011;20725;51.196;3.510;2023-12-28T12:01:35;11.07;;;3.37;;
15665;SDS011;20725;51.196;3.510;2023-12-28T12:04:06;20.60;;;4.47;;
15665;SDS011;20725;51.196;3.510;2023-12-28T12:06:37;18.97;;;4.20;;
15665;SDS011;20725;51.196;3.510;2023-12-28T12:09:07;15.50;;;3.77;;
15665;SDS011;20725;51.196;3.510;2023-12-28T12:11:39;14.60;;;4.13;;
15665;SDS011;20725;51.196;3.510;2023-12-28T12:14:10;10.70;;;3.33;;
15665;SDS011;20725;51.196;3.510;2023-12-28T12:16:44;13.63;;;3.60;;
15665;SDS011;20725;51.196;3.510;2023-12-28T12:19:14;13.97;;;3.83;;
15665;SDS011;20725;51.196;3.510;2023-12-28T12:21:44;13.43;;;3.50;;
15665;SDS011;20725;51.196;3.510;2023-12-28T12:24:12;13.40;;;3.30;;
15665;SDS011;20725;51.196;3.510;2023-12-28T12:26:40;12.93;;;4.13;;
15665;SDS011;20725;51.196;3.510;2023-12-28T12:29:23;12.90;;;3.90;;
15665;SDS011;20725;51.196;3.510;2023-12-28T12:31:53;14.33;;;4.10;;
15665;SDS011;20725;51.196;3.510;2023-12-28T12:34:22;13.63;;;3.93;;
15665;SDS011;20725;51.196;3.510;2023-12-28T12:36:51;20.73;;;4.40;;
15665;SDS011;20725;51.196;3.510;2023-12-28T12:39:19;17.93;;;4.33;;
15665;SDS011;20725;51.196;3.510;2023-12-28T12:41:48;16.83;;;3.77;;
15665;SDS011;20725;51.196;3.510;2023-12-28T12:44:16;12.83;;;3.23;;
15665;SDS011;20725;51.196;3.510;2023-12-28T12:46:43;14.27;;;3.70;;
15665;SDS011;20725;51.196;3.510;2023-12-28T12:49:12;16.13;;;4.40;;
15665;SDS011;20725;51.196;3.510;2023-12-28T12:51:42;18.87;;;4.37;;
15665;SDS011;20725;51.196;3.510;2023-12-28T12:54:09;14.80;;;3.83;;
15665;SDS011;20725;51.196;3.510;2023-12-28T12:56:36;23.53;;;4.73;;
15665;SDS011;20725;51.196;3.510;2023-12-28T12:59:10;8.67;;;2.70;;
15665;SDS011;20725;51.196;3.510;2023-12-28T13:01:41;13.97;;;3.93;;
15665;SDS011;20725;51.196;3.510;2023-12-28T13:04:19;17.83;;;3.93;;
15665;SDS011;20725;51.196;3.510;2023-12-28T13:06:55;9.83;;;3.67;;
15665;SDS011;20725;51.196;3.510;2023-12-28T13:09:30;14.33;;;3.97;;
15665;SDS011;20725;51.196;3.510;2023-12-28T13:12:36;8.87;;;3.60;;
15665;SDS011;20725;51.196;3.510;2023-12-28T13:15:08;11.40;;;3.47;;
15665;SDS011;20725;51.196;3.510;2023-12-28T13:17:44;18.73;;;4.83;;
15665;SDS011;20725;51.196;3.510;2023-12-28T13:20:30;19.70;;;4.40;;
15665;SDS011;20725;51.196;3.510;2023-12-28T13:23:08;9.87;;;3.43;;
15665;SDS011;20725;51.196;3.510;2023-12-28T13:25:40;12.33;;;3.37;;
15665;SDS011;20725;51.196;3.510;2023-12-28T13:28:08;15.27;;;4.80;;
15665;SDS011;20725;51.196;3.510;2023-12-28T13:30:47;20.00;;;4.57;;
15665;SDS011;20725;51.196;3.510;2023-12-28T13:33:29;13.87;;;3.80;;
15665;SDS011;20725;51.196;3.510;2023-12-28T13:36:16;16.03;;;4.30;;
15665;SDS011;20725;51.196;3.510;2023-12-28T13:39:00;12.53;;;3.90;;
15665;SDS011;20725;51.196;3.510;2023-12-28T13:41:31;16.77;;;4.37;;
15665;SDS011;20725;51.196;3.510;2023-12-28T13:44:08;9.50;;;2.80;;
15665;SDS011;20725;51.196;3.510;2023-12-28T13:46:57;19.97;;;4.53;;
15665;SDS011;20725;51.196;3.510;2023-12-28T13:52:27;15.90;;;4.00;;
15665;SDS011;20725;51.196;3.510;2023-12-28T13:58:24;10.07;;;2.60;;
15665;SDS011;20725;51.196;3.510;2023-12-28T14:01:00;13.17;;;4.70;;
15665;SDS011;20725;51.196;3.510;2023-12-28T14:03:51;10.30;;;3.50;;
15665;SDS011;20725;51.196;3.510;2023-12-28T14:06:21;26.77;;;5.00;;
15665;SDS011;20725;51.196;3.510;2023-12-28T14:09:00;15.87;;;3.67;;
15665;SDS011;20725;51.196;3.510;2023-12-28T14:11:33;17.83;;;3.73;;
15665;SDS011;20725;51.196;3.510;2023-12-28T14:14:08;10.03;;;3.60;;
15665;SDS011;20725;51.196;3.510;2023-12-28T14:16:47;12.03;;;3.30;;
15665;SDS011;20725;51.196;3.510;2023-12-28T14:19:35;13.70;;;3.77;;
15665;SDS011;20725;51.196;3.510;2023-12-28T14:34:10;18.07;;;3.87;;
15665;SDS011;20725;51.196;3.510;2023-12-28T14:36:57;12.03;;;3.63;;
15665;SDS011;20725;51.196;3.510;2023-12-28T14:42:23;10.27;;;2.50;;
15665;SDS011;20725;51.196;3.510;2023-12-28T14:47:48;13.20;;;3.83;;
15665;SDS011;20725;51.196;3.510;2023-12-28T14:50:36;13.83;;;3.07;;
15665;SDS011;20725;51.196;3.510;2023-12-28T14:53:20;18.90;;;3.83;;
15665;SDS011;20725;51.196;3.510;2023-12-28T14:55:52;10.67;;;3.60;;
15665;SDS011;20725;51.196;3.510;2023-12-28T14:58:23;12.77;;;4.10;;
15665;SDS011;20725;51.196;3.510;2023-12-28T15:00:54;14.40;;;3.60;;
15665;SDS011;20725;51.196;3.510;2023-12-28T15:13:09;18.47;;;4.53;;
15665;SDS011;20725;51.196;3.510;2023-12-28T15:16:12;15.23;;;3.83;;
15665;SDS011;20725;51.196;3.510;2023-12-28T15:19:13;11.20;;;2.67;;
15665;SDS011;20725;51.196;3.510;2023-12-28T15:21:54;16.50;;;3.63;;
15665;SDS011;20725;51.196;3.510;2023-12-28T15:27:24;12.40;;;3.50;;
15665;SDS011;20725;51.196;3.510;2023-12-28T15:32:58;13.20;;;3.67;;
15665;SDS011;20725;51.196;3.510;2023-12-28T15:35:40;8.90;;;3.40;;
15665;SDS011;20725;51.196;3.510;2023-12-28T15:38:26;7.93;;;2.97;;
15665;SDS011;20725;51.196;3.510;2023-12-28T15:41:07;10.87;;;2.90;;
15665;SDS011;20725;51.196;3.510;2023-12-28T15:43:43;8.73;;;3.47;;
15665;SDS011;20725;51.196;3.510;2023-12-28T15:46:24;8.77;;;2.20;;
15665;SDS011;20725;51.196;3.510;2023-12-28T15:49:19;9.57;;;2.90;;
15665;SDS011;20725;51.196;3.510;2023-12-28T15:52:04;9.37;;;2.87;;